sensor_id;sensor_type;location;lat;lon;timestamp;pressure;altitude;pressure_sealevel;temperature;humidity
21869;BME280;11099;41.564;23.296;2023-06-05T00:02:06;97979.88;;;19.16;96.46
21869;BME280;11099;41.564;23.296;2023-06-05T00:04:32;98017.47;;;19.41;97.08
21869;BME280;11099;41.564;23.296;2023-06-05T00:06:57;98054.88;;;19.58;98.03
21869;BME280;11099;41.564;23.296;2023-06-05T00:09:23;98014.53;;;19.30;97.98
21869;BME280;11099;41.564;23.296;2023-06-05T00:11:48;98086.22;;;19.94;96.19
21869;BME280;11099;41.564;23.296;2023-06-05T00:14:14;98055.13;;;20.04;94.47
21869;BME280;11099;41.564;23.296;2023-06-05T00:16:40;98056.81;;;19.58;96.37
21869;BME280;11099;41.564;23.296;2023-06-05T00:19:05;97889.97;;;18.02;99.63
21869;BME280;11099;41.564;23.296;2023-06-05T00:21:31;98060.19;;;19.55;98.08
21869;BME280;11099;41.564;23.296;2023-06-05T00:23:57;98038.97;;;19.53;96.95
21869;BME280;11099;41.564;23.296;2023-06-05T00:26:23;97965.78;;;19.23;96.10
21869;BME280;11099;41.564;23.296;2023-06-05T00:28:49;98039.34;;;19.36;97.95
21869;BME280;11099;41.564;23.296;2023-06-05T00:31:15;98050.19;;;19.71;97.08
21869;BME280;11099;41.564;23.296;2023-06-05T00:33:42;98043.97;;;19.19;97.94
21869;BME280;11099;41.564;23.296;2023-06-05T00:36:08;98014.13;;;18.97;99.14
21869;BME280;11099;41.564;23.296;2023-06-05T00:38:33;98022.16;;;19.28;97.77
21869;BME280;11099;41.564;23.296;2023-06-05T00:40:58;97992.91;;;19.62;95.56
21869;BME280;11099;41.564;23.296;2023-06-05T00:43:24;97980.09;;;19.43;95.30
21869;BME280;11099;41.564;23.296;2023-06-05T00:45:53;97995.75;;;19.53;94.81
21869;BME280;11099;41.564;23.296;2023-06-05T00:48:22;98038.03;;;19.45;97.09
21869;BME280;11099;41.564;23.296;2023-06-05T00:50:47;97976.72;;;18.79;99.64
21869;BME280;11099;41.564;23.296;2023-06-05T00:53:13;97990.47;;;18.90;100.00
21869;BME280;11099;41.564;23.296;2023-06-05T00:55:38;97925.97;;;18.09;100.00
21869;BME280;11099;41.564;23.296;2023-06-05T00:58:04;98048.66;;;18.75;100.00
21869;BME280;11099;41.564;23.296;2023-06-05T01:00:30;98044.94;;;18.95;100.00
21869;BME280;11099;41.564;23.296;2023-06-05T01:02:56;98049.16;;;19.28;100.00
21869;BME280;11099;41.564;23.296;2023-06-05T01:05:23;98026.53;;;19.33;100.00
21869;BME280;11099;41.564;23.296;2023-06-05T01:07:49;98039.59;;;19.31;98.89
21869;BME280;11099;41.564;23.296;2023-06-05T01:10:16;98015.69;;;18.82;100.00
21869;BME280;11099;41.564;23.296;2023-06-05T01:15:28;97978.91;;;18.61;100.00
21869;BME280;11099;41.564;23.296;2023-06-05T01:17:58;97968.56;;;18.63;100.00
21869;BME280;11099;41.564;23.296;2023-06-05T01:20:38;98040.84;;;19.02;100.00
21869;BME280;11099;41.564;23.296;2023-06-05T01:23:06;97988.81;;;18.41;100.00
21869;BME280;11099;41.564;23.296;2023-06-05T01:25:32;98037.69;;;18.56;100.00
21869;BME280;11099;41.564;23.296;2023-06-05T01:28:16;98004.69;;;18.31;100.00
21869;BME280;11099;41.564;23.296;2023-06-05T01:30:49;98025.44;;;18.58;100.00
21869;BME280;11099;41.564;23.296;2023-06-05T01:35:53;98006.69;;;18.34;100.00
21869;BME280;11099;41.564;23.296;2023-06-05T01:38:21;98044.13;;;18.51;100.00
21869;BME280;11099;41.564;23.296;2023-06-05T01:40:48;98033.50;;;18.42;100.00
21869;BME280;11099;41.564;23.296;2023-06-05T01:43:15;98024.53;;;18.38;100.00
21869;BME280;11099;41.564;23.296;2023-06-05T01:45:42;97939.84;;;17.96;100.00
21869;BME280;11099;41.564;23.296;2023-06-05T01:48:09;98033.94;;;18.44;100.00
21869;BME280;11099;41.564;23.296;2023-06-05T01:50:36;98028.94;;;18.59;100.00
21869;BME280;11099;41.564;23.296;2023-06-05T01:53:03;97957.00;;;18.03;100.00
21869;BME280;11099;41.564;23.296;2023-06-05T01:55:30;98013.75;;;18.82;100.00
21869;BME280;11099;41.564;23.296;2023-06-05T01:57:55;97996.19;;;18.88;100.00
21869;BME280;11099;41.564;23.296;2023-06-05T02:00:21;97993.47;;;19.04;100.00
21869;BME280;11099;41.564;23.296;2023-06-05T02:02:47;97936.25;;;18.79;100.00
21869;BME280;11099;41.564;23.296;2023-06-05T02:05:15;97923.31;;;19.04;100.00
21869;BME280;11099;41.564;23.296;2023-06-05T02:07:48;98008.63;;;19.25;100.00
21869;BME280;11099;41.564;23.296;2023-06-05T02:10:19;98007.59;;;18.98;100.00
21869;BME280;11099;41.564;23.296;2023-06-05T02:12:45;98027.38;;;19.53;100.00
21869;BME280;11099;41.564;23.296;2023-06-05T02:15:10;98013.66;;;18.79;100.00
21869;BME280;11099;41.564;23.296;2023-06-05T02:17:40;97944.09;;;18.25;100.00
21869;BME280;11099;41.564;23.296;2023-06-05T02:20:13;97946.25;;;18.35;100.00
21869;BME280;11099;41.564;23.296;2023-06-05T02:22:39;98032.47;;;18.75;100.00
21869;BME280;11099;41.564;23.296;2023-06-05T02:25:09;98021.44;;;18.52;100.00
21869;BME280;11099;41.564;23.296;2023-06-05T02:27:38;98011.66;;;18.04;100.00
21869;BME280;11099;41.564;23.296;2023-06-05T02:30:05;98018.78;;;18.40;100.00
21869;BME280;11099;41.564;23.296;2023-06-05T02:32:32;98004.28;;;18.88;100.00
21869;BME280;11099;41.564;23.296;2023-06-05T02:34:57;97983.53;;;18.61;100.00
21869;BME280;11099;41.564;23.296;2023-06-05T02:37:24;98003.72;;;18.23;100.00
21869;BME280;11099;41.564;23.296;2023-06-05T02:39:51;98005.09;;;18.17;100.00
21869;BME280;11099;41.564;23.296;2023-06-05T02:42:17;97959.94;;;17.98;100.00
21869;BME280;11099;41.564;23.296;2023-06-05T02:44:44;97915.38;;;17.73;100.00
21869;BME280;11099;41.564;23.296;2023-06-05T02:47:10;97925.28;;;17.97;100.00
21869;BME280;11099;41.564;23.296;2023-06-05T02:49:35;97930.72;;;18.44;100.00
21869;BME280;11099;41.564;23.296;2023-06-05T02:52:02;97937.25;;;18.59;100.00
21869;BME280;11099;41.564;23.296;2023-06-05T02:54:28;97993.94;;;18.75;100.00
21869;BME280;11099;41.564;23.296;2023-06-05T02:56:55;98010.00;;;19.34;100.00
21869;BME280;11099;41.564;23.296;2023-06-05T02:59:22;98009.16;;;18.99;100.00
21869;BME280;11099;41.564;23.296;2023-06-05T03:01:50;97996.19;;;18.44;100.00
21869;BME280;11099;41.564;23.296;2023-06-05T03:04:18;97914.75;;;18.07;100.00
21869;BME280;11099;41.564;23.296;2023-06-05T03:06:48;97945.69;;;18.57;100.00
21869;BME280;11099;41.564;23.296;2023-06-05T03:09:14;98020.03;;;19.02;100.00
21869;BME280;11099;41.564;23.296;2023-06-05T03:11:40;98015.06;;;18.44;100.00
21869;BME280;11099;41.564;23.296;2023-06-05T03:14:05;98021.09;;;18.54;100.00
21869;BME280;11099;41.564;23.296;2023-06-05T03:16:31;98037.00;;;19.03;100.00
21869;BME280;11099;41.564;23.296;2023-06-05T03:19:03;98019.34;;;18.17;100.00
21869;BME280;11099;41.564;23.296;2023-06-05T03:21:28;98034.00;;;18.32;100.00
21869;BME280;11099;41.564;23.296;2023-06-05T03:23:54;97911.75;;;17.69;100.00
21869;BME280;11099;41.564;23.296;2023-06-05T03:26:19;98011.13;;;17.98;100.00
21869;BME280;11099;41.564;23.296;2023-06-05T03:28:47;98068.00;;;18.09;100.00
21869;BME280;11099;41.564;23.296;2023-06-05T03:31:13;98006.09;;;17.84;100.00
21869;BME280;11099;41.564;23.296;2023-06-05T03:33:38;97895.50;;;17.37;100.00
21869;BME280;11099;41.564;23.296;2023-06-05T03:36:04;97960.56;;;17.67;100.00
21869;BME280;11099;41.564;23.296;2023-06-05T03:38:30;98027.81;;;18.32;100.00
21869;BME280;11099;41.564;23.296;2023-06-05T03:40:56;97955.34;;;17.99;100.00
21869;BME280;11099;41.564;23.296;2023-06-05T03:43:21;98011.38;;;18.65;100.00
21869;BME280;11099;41.564;23.296;2023-06-05T03:45:50;98018.22;;;18.90;100.00
21869;BME280;11099;41.564;23.296;2023-06-05T03:48:17;98019.25;;;19.02;100.00
21869;BME280;11099;41.564;23.296;2023-06-05T03:50:45;98031.66;;;19.38;100.00
21869;BME280;11099;41.564;23.296;2023-06-05T03:53:12;98003.16;;;19.56;99.20
21869;BME280;11099;41.564;23.296;2023-06-05T03:55:39;98037.00;;;20.24;95.76
21869;BME280;11099;41.564;23.296;2023-06-05T03:58:11;98015.94;;;20.33;95.44
21869;BME280;11099;41.564;23.296;2023-06-05T04:00:44;98022.91;;;20.76;93.73
21869;BME280;11099;41.564;23.296;2023-06-05T04:03:11;98018.19;;;21.42;90.21
21869;BME280;11099;41.564;23.296;2023-06-05T04:05:37;97968.97;;;21.37;87.27
21869;BME280;11099;41.564;23.296;2023-06-05T04:08:04;98023.59;;;21.95;85.58
21869;BME280;11099;41.564;23.296;2023-06-05T04:10:30;98031.78;;;22.66;82.10
21869;BME280;11099;41.564;23.296;2023-06-05T04:12:55;98045.44;;;23.18;78.76
21869;BME280;11099;41.564;23.296;2023-06-05T04:15:25;98035.44;;;23.87;74.57
21869;BME280;11099;41.564;23.296;2023-06-05T04:17:51;98026.28;;;23.55;73.12
21869;BME280;11099;41.564;23.296;2023-06-05T04:20:16;98034.69;;;23.32;75.95
21869;BME280;11099;41.564;23.296;2023-06-05T04:22:42;98044.13;;;23.01;79.27
21869;BME280;11099;41.564;23.296;2023-06-05T04:25:09;97993.38;;;22.27;80.50
21869;BME280;11099;41.564;23.296;2023-06-05T04:27:42;98053.53;;;23.10;79.03
21869;BME280;11099;41.564;23.296;2023-06-05T04:30:09;98024.75;;;23.54;77.43
21869;BME280;11099;41.564;23.296;2023-06-05T04:32:37;98032.94;;;23.61;75.71
21869;BME280;11099;41.564;23.296;2023-06-05T04:35:04;98015.50;;;23.10;76.27
21869;BME280;11099;41.564;23.296;2023-06-05T04:37:31;98004.53;;;23.51;75.69
21869;BME280;11099;41.564;23.296;2023-06-05T04:39:57;98033.84;;;24.98;70.49
21869;BME280;11099;41.564;23.296;2023-06-05T04:42:24;97979.38;;;25.20;67.26
21869;BME280;11099;41.564;23.296;2023-06-05T04:44:56;98033.03;;;25.62;67.73
21869;BME280;11099;41.564;23.296;2023-06-05T04:47:22;98026.47;;;25.35;67.45
21869;BME280;11099;41.564;23.296;2023-06-05T04:49:48;98014.00;;;25.37;67.89
21869;BME280;11099;41.564;23.296;2023-06-05T04:52:16;98035.69;;;24.48;71.51
21869;BME280;11099;41.564;23.296;2023-06-05T04:54:42;98020.16;;;24.56;71.75
21869;BME280;11099;41.564;23.296;2023-06-05T04:57:09;98031.53;;;25.01;68.33
21869;BME280;11099;41.564;23.296;2023-06-05T04:59:35;97999.28;;;23.76;74.43
21869;BME280;11099;41.564;23.296;2023-06-05T05:02:01;97921.59;;;22.58;77.92
21869;BME280;11099;41.564;23.296;2023-06-05T05:04:26;98010.16;;;23.83;75.46
21869;BME280;11099;41.564;23.296;2023-06-05T05:06:52;97976.94;;;24.29;72.79
21869;BME280;11099;41.564;23.296;2023-06-05T05:09:18;98011.88;;;24.20;72.51
21869;BME280;11099;41.564;23.296;2023-06-05T05:11:43;98030.66;;;24.50;71.14
21869;BME280;11099;41.564;23.296;2023-06-05T05:14:09;98024.66;;;23.43;76.61
21869;BME280;11099;41.564;23.296;2023-06-05T05:16:35;98025.66;;;23.69;76.20
21869;BME280;11099;41.564;23.296;2023-06-05T05:19:00;98016.16;;;24.28;73.61
21869;BME280;11099;41.564;23.296;2023-06-05T05:21:26;98003.84;;;25.52;67.06
21869;BME280;11099;41.564;23.296;2023-06-05T05:23:51;97983.25;;;25.05;68.79
21869;BME280;11099;41.564;23.296;2023-06-05T05:26:17;97980.13;;;24.81;72.88
21869;BME280;11099;41.564;23.296;2023-06-05T05:28:42;98024.41;;;24.42;76.69
21869;BME280;11099;41.564;23.296;2023-06-05T05:31:08;98004.72;;;23.76;79.80
21869;BME280;11099;41.564;23.296;2023-06-05T05:33:34;98031.41;;;24.36;77.63
21869;BME280;11099;41.564;23.296;2023-06-05T05:36:00;98020.91;;;24.35;78.31
21869;BME280;11099;41.564;23.296;2023-06-05T05:38:25;98010.28;;;24.05;79.00
21869;BME280;11099;41.564;23.296;2023-06-05T05:40:51;97973.25;;;23.79;77.97
21869;BME280;11099;41.564;23.296;2023-06-05T05:43:16;98030.50;;;24.11;78.88
21869;BME280;11099;41.564;23.296;2023-06-05T05:45:42;97990.75;;;23.81;80.08
21869;BME280;11099;41.564;23.296;2023-06-05T05:48:09;98046.28;;;24.78;77.38
21869;BME280;11099;41.564;23.296;2023-06-05T05:50:35;97942.69;;;24.14;77.60
21869;BME280;11099;41.564;23.296;2023-06-05T05:53:00;97873.03;;;23.66;76.63
21869;BME280;11099;41.564;23.296;2023-06-05T05:55:26;97992.59;;;25.00;74.01
21869;BME280;11099;41.564;23.296;2023-06-05T05:57:51;97907.41;;;24.46;74.15
21869;BME280;11099;41.564;23.296;2023-06-05T06:00:17;98034.22;;;25.43;72.34
21869;BME280;11099;41.564;23.296;2023-06-05T06:02:43;98033.03;;;25.77;66.93
21869;BME280;11099;41.564;23.296;2023-06-05T06:05:08;97896.06;;;24.01;70.53
21869;BME280;11099;41.564;23.296;2023-06-05T06:07:35;98052.81;;;24.45;72.37
21869;BME280;11099;41.564;23.296;2023-06-05T06:10:02;98054.09;;;25.47;66.40
21869;BME280;11099;41.564;23.296;2023-06-05T06:12:27;98043.97;;;25.66;67.78
21869;BME280;11099;41.564;23.296;2023-06-05T06:14:54;98026.19;;;26.38;64.13
21869;BME280;11099;41.564;23.296;2023-06-05T06:17:20;97862.50;;;25.47;65.08
21869;BME280;11099;41.564;23.296;2023-06-05T06:19:45;97962.25;;;25.19;63.66
21869;BME280;11099;41.564;23.296;2023-06-05T06:22:13;97873.97;;;24.60;66.72
21869;BME280;11099;41.564;23.296;2023-06-05T06:24:42;97931.06;;;25.42;64.84
21869;BME280;11099;41.564;23.296;2023-06-05T06:27:08;97990.66;;;25.40;65.87
21869;BME280;11099;41.564;23.296;2023-06-05T06:29:47;98035.00;;;25.62;66.00
21869;BME280;11099;41.564;23.296;2023-06-05T06:32:12;97995.28;;;25.57;65.59
21869;BME280;11099;41.564;23.296;2023-06-05T06:34:38;98040.09;;;25.28;67.10
21869;BME280;11099;41.564;23.296;2023-06-05T06:37:04;98010.91;;;25.28;66.93
21869;BME280;11099;41.564;23.296;2023-06-05T06:39:29;97939.19;;;24.10;68.47
21869;BME280;11099;41.564;23.296;2023-06-05T06:41:55;97985.50;;;24.31;73.22
21869;BME280;11099;41.564;23.296;2023-06-05T06:44:21;98010.50;;;25.40;68.08
21869;BME280;11099;41.564;23.296;2023-06-05T06:46:47;98013.09;;;25.97;65.57
21869;BME280;11099;41.564;23.296;2023-06-05T06:49:12;98007.72;;;25.62;67.85
21869;BME280;11099;41.564;23.296;2023-06-05T06:51:38;97971.47;;;25.83;66.74
21869;BME280;11099;41.564;23.296;2023-06-05T06:54:04;97935.88;;;26.08;65.13
21869;BME280;11099;41.564;23.296;2023-06-05T06:56:29;98022.75;;;26.20;65.04
21869;BME280;11099;41.564;23.296;2023-06-05T06:58:55;98006.28;;;26.38;65.45
21869;BME280;11099;41.564;23.296;2023-06-05T07:01:21;97957.72;;;26.04;65.69
21869;BME280;11099;41.564;23.296;2023-06-05T07:03:46;98004.91;;;26.05;67.40
21869;BME280;11099;41.564;23.296;2023-06-05T07:06:12;97935.88;;;26.11;64.46
21869;BME280;11099;41.564;23.296;2023-06-05T07:08:38;97937.47;;;26.05;64.11
21869;BME280;11099;41.564;23.296;2023-06-05T07:11:03;97972.25;;;25.80;67.40
21869;BME280;11099;41.564;23.296;2023-06-05T07:13:29;97981.19;;;25.84;67.17
21869;BME280;11099;41.564;23.296;2023-06-05T07:15:55;97957.53;;;25.41;69.15
21869;BME280;11099;41.564;23.296;2023-06-05T07:18:20;98033.47;;;26.63;66.14
21869;BME280;11099;41.564;23.296;2023-06-05T07:20:46;97998.59;;;26.81;64.31
21869;BME280;11099;41.564;23.296;2023-06-05T07:23:14;98002.63;;;25.82;68.56
21869;BME280;11099;41.564;23.296;2023-06-05T07:25:40;97926.88;;;24.73;70.62
21869;BME280;11099;41.564;23.296;2023-06-05T07:28:08;97953.31;;;25.22;70.54
21869;BME280;11099;41.564;23.296;2023-06-05T07:30:34;98018.25;;;25.67;70.90
21869;BME280;11099;41.564;23.296;2023-06-05T07:33:00;98011.13;;;25.98;68.52
21869;BME280;11099;41.564;23.296;2023-06-05T07:35:26;97892.19;;;25.23;68.10
21869;BME280;11099;41.564;23.296;2023-06-05T07:37:51;97903.00;;;25.56;69.07
21869;BME280;11099;41.564;23.296;2023-06-05T07:40:17;97930.94;;;25.88;68.96
21869;BME280;11099;41.564;23.296;2023-06-05T07:42:44;97915.97;;;26.14;66.62
21869;BME280;11099;41.564;23.296;2023-06-05T07:45:10;97946.38;;;26.09;68.08
21869;BME280;11099;41.564;23.296;2023-06-05T07:47:35;97896.03;;;25.44;68.04
21869;BME280;11099;41.564;23.296;2023-06-05T07:50:02;97837.34;;;24.96;68.22
21869;BME280;11099;41.564;23.296;2023-06-05T07:52:31;98018.03;;;26.94;67.89
21869;BME280;11099;41.564;23.296;2023-06-05T07:54:57;98018.06;;;26.24;68.83
21869;BME280;11099;41.564;23.296;2023-06-05T07:57:23;98029.88;;;27.28;65.99
21869;BME280;11099;41.564;23.296;2023-06-05T07:59:52;98036.88;;;27.29;66.23
21869;BME280;11099;41.564;23.296;2023-06-05T08:02:19;97911.06;;;26.54;64.63
21869;BME280;11099;41.564;23.296;2023-06-05T08:04:46;98033.53;;;27.56;63.31
21869;BME280;11099;41.564;23.296;2023-06-05T08:07:11;98035.94;;;27.47;65.07
21869;BME280;11099;41.564;23.296;2023-06-05T08:09:38;98000.44;;;26.36;64.78
21869;BME280;11099;41.564;23.296;2023-06-05T08:12:04;97954.66;;;25.91;66.24
21869;BME280;11099;41.564;23.296;2023-06-05T08:14:31;98040.03;;;26.76;65.99
21869;BME280;11099;41.564;23.296;2023-06-05T08:16:57;98042.97;;;26.99;66.81
21869;BME280;11099;41.564;23.296;2023-06-05T08:19:22;98012.44;;;26.56;66.56
21869;BME280;11099;41.564;23.296;2023-06-05T08:21:52;98035.97;;;26.28;69.39
21869;BME280;11099;41.564;23.296;2023-06-05T08:24:20;97979.94;;;26.06;65.41
21869;BME280;11099;41.564;23.296;2023-06-05T08:26:46;98061.28;;;26.43;64.58
21869;BME280;11099;41.564;23.296;2023-06-05T08:29:12;98008.13;;;26.62;67.95
21869;BME280;11099;41.564;23.296;2023-06-05T08:31:38;98036.03;;;27.40;65.92
21869;BME280;11099;41.564;23.296;2023-06-05T08:34:04;97980.56;;;27.39;63.85
21869;BME280;11099;41.564;23.296;2023-06-05T08:36:30;97971.16;;;26.47;64.80
21869;BME280;11099;41.564;23.296;2023-06-05T08:38:58;98009.31;;;26.58;68.29
21869;BME280;11099;41.564;23.296;2023-06-05T08:41:24;98002.53;;;26.80;67.81
21869;BME280;11099;41.564;23.296;2023-06-05T08:43:51;97930.38;;;26.77;64.10
21869;BME280;11099;41.564;23.296;2023-06-05T08:46:17;97997.63;;;27.54;58.17
21869;BME280;11099;41.564;23.296;2023-06-05T08:48:44;98010.09;;;27.55;61.08
21869;BME280;11099;41.564;23.296;2023-06-05T08:51:11;97904.97;;;26.25;64.12
21869;BME280;11099;41.564;23.296;2023-06-05T08:53:39;97989.72;;;25.96;65.99
21869;BME280;11099;41.564;23.296;2023-06-05T08:56:05;97940.19;;;26.01;63.56
21869;BME280;11099;41.564;23.296;2023-06-05T08:58:32;98001.22;;;26.43;64.05
21869;BME280;11099;41.564;23.296;2023-06-05T09:00:59;97892.69;;;25.99;64.72
21869;BME280;11099;41.564;23.296;2023-06-05T09:03:25;97912.69;;;25.67;65.26
21869;BME280;11099;41.564;23.296;2023-06-05T09:05:52;98009.59;;;26.00;65.33
21869;BME280;11099;41.564;23.296;2023-06-05T09:08:27;97904.88;;;25.69;64.44
21869;BME280;11099;41.564;23.296;2023-06-05T09:11:25;98014.34;;;26.66;63.89
21869;BME280;11099;41.564;23.296;2023-06-05T09:13:54;97927.56;;;26.29;61.47
21869;BME280;11099;41.564;23.296;2023-06-05T09:16:23;97936.88;;;26.39;61.09
21869;BME280;11099;41.564;23.296;2023-06-05T09:18:58;97953.31;;;26.87;59.81
21869;BME280;11099;41.564;23.296;2023-06-05T09:21:25;97994.50;;;27.11;60.01
21869;BME280;11099;41.564;23.296;2023-06-05T09:29:21;97952.81;;;27.41;58.83
21869;BME280;11099;41.564;23.296;2023-06-05T09:31:46;97906.31;;;27.07;55.34
21869;BME280;11099;41.564;23.296;2023-06-05T09:34:23;98002.66;;;27.93;58.15
21869;BME280;11099;41.564;23.296;2023-06-05T09:36:49;97939.88;;;27.45;55.62
21869;BME280;11099;41.564;23.296;2023-06-05T09:39:17;97906.72;;;27.43;56.68
21869;BME280;11099;41.564;23.296;2023-06-05T09:41:49;97955.53;;;26.99;58.75
21869;BME280;11099;41.564;23.296;2023-06-05T09:44:16;97961.94;;;26.82;60.75
21869;BME280;11099;41.564;23.296;2023-06-05T09:47:02;97969.53;;;27.05;59.98
21869;BME280;11099;41.564;23.296;2023-06-05T09:52:07;97874.72;;;27.02;61.98
21869;BME280;11099;41.564;23.296;2023-06-05T09:54:37;97822.59;;;26.44;59.89
21869;BME280;11099;41.564;23.296;2023-06-05T09:57:08;97985.25;;;27.39;60.76
21869;BME280;11099;41.564;23.296;2023-06-05T09:59:44;97962.03;;;27.20;59.13
21869;BME280;11099;41.564;23.296;2023-06-05T10:02:12;97993.03;;;27.44;60.97
21869;BME280;11099;41.564;23.296;2023-06-05T10:05:17;97996.47;;;27.10;59.84
21869;BME280;11099;41.564;23.296;2023-06-05T10:07:37;97985.72;;;27.71;56.73
21869;BME280;11099;41.564;23.296;2023-06-05T10:10:05;97932.00;;;27.50;58.28
21869;BME280;11099;41.564;23.296;2023-06-05T10:12:31;97954.84;;;28.01;58.58
21869;BME280;11099;41.564;23.296;2023-06-05T10:14:56;97934.19;;;27.66;58.08
21869;BME280;11099;41.564;23.296;2023-06-05T10:17:23;97888.44;;;27.67;56.89
21869;BME280;11099;41.564;23.296;2023-06-05T10:19:49;97954.88;;;27.71;55.02
21869;BME280;11099;41.564;23.296;2023-06-05T10:22:17;97860.22;;;27.09;57.26
21869;BME280;11099;41.564;23.296;2023-06-05T10:25:03;97889.00;;;27.54;53.51
21869;BME280;11099;41.564;23.296;2023-06-05T10:28:04;97947.78;;;27.73;58.22
21869;BME280;11099;41.564;23.296;2023-06-05T10:33:55;97893.44;;;28.33;54.78
21869;BME280;11099;41.564;23.296;2023-06-05T10:39:14;97938.56;;;28.75;52.81
21869;BME280;11099;41.564;23.296;2023-06-05T10:41:41;97938.38;;;28.63;49.38
21869;BME280;11099;41.564;23.296;2023-06-05T10:44:07;97861.47;;;28.73;51.92
21869;BME280;11099;41.564;23.296;2023-06-05T10:46:34;97946.44;;;29.20;53.49
21869;BME280;11099;41.564;23.296;2023-06-05T10:49:11;97945.19;;;28.51;57.88
21869;BME280;11099;41.564;23.296;2023-06-05T10:51:50;97929.66;;;28.68;56.89
21869;BME280;11099;41.564;23.296;2023-06-05T10:59:31;97934.69;;;28.73;54.03
21869;BME280;11099;41.564;23.296;2023-06-05T11:07:21;97937.16;;;29.57;50.88
21869;BME280;11099;41.564;23.296;2023-06-05T11:15:10;97894.31;;;28.53;53.67
21869;BME280;11099;41.564;23.296;2023-06-05T11:17:39;97934.94;;;29.05;52.92
21869;BME280;11099;41.564;23.296;2023-06-05T11:20:48;97868.34;;;28.85;50.68
21869;BME280;11099;41.564;23.296;2023-06-05T11:27:48;97928.53;;;28.88;53.97
21869;BME280;11099;41.564;23.296;2023-06-05T11:30:16;97866.97;;;28.73;53.92
21869;BME280;11099;41.564;23.296;2023-06-05T11:32:43;97916.47;;;29.09;55.09
21869;BME280;11099;41.564;23.296;2023-06-05T11:35:09;97920.50;;;29.25;53.72
21869;BME280;11099;41.564;23.296;2023-06-05T11:37:35;97931.06;;;29.46;50.08
21869;BME280;11099;41.564;23.296;2023-06-05T11:40:02;97908.25;;;28.63;54.34
21869;BME280;11099;41.564;23.296;2023-06-05T11:42:34;97879.66;;;28.64;52.47
21869;BME280;11099;41.564;23.296;2023-06-05T11:45:01;97827.22;;;28.42;51.54
21869;BME280;11099;41.564;23.296;2023-06-05T11:47:28;97922.34;;;29.31;52.02
21869;BME280;11099;41.564;23.296;2023-06-05T11:50:10;97907.19;;;28.80;52.73
21869;BME280;11099;41.564;23.296;2023-06-05T11:52:36;97907.22;;;28.26;54.54
21869;BME280;11099;41.564;23.296;2023-06-05T11:55:16;97901.03;;;28.72;54.93
21869;BME280;11099;41.564;23.296;2023-06-05T11:57:46;97889.44;;;28.41;52.58
21869;BME280;11099;41.564;23.296;2023-06-05T12:00:15;97908.16;;;28.93;54.87
21869;BME280;11099;41.564;23.296;2023-06-05T12:02:42;97826.44;;;28.65;49.68
21869;BME280;11099;41.564;23.296;2023-06-05T12:05:09;97834.03;;;28.77;49.27
21869;BME280;11099;41.564;23.296;2023-06-05T12:07:34;97876.50;;;29.12;49.71
21869;BME280;11099;41.564;23.296;2023-06-05T12:10:06;97900.16;;;29.22;50.49
21869;BME280;11099;41.564;23.296;2023-06-05T12:12:33;97879.72;;;29.27;49.02
21869;BME280;11099;41.564;23.296;2023-06-05T12:15:15;97863.34;;;29.03;51.28
21869;BME280;11099;41.564;23.296;2023-06-05T12:17:40;97815.19;;;29.02;50.73
21869;BME280;11099;41.564;23.296;2023-06-05T12:20:06;97787.13;;;28.95;50.44
21869;BME280;11099;41.564;23.296;2023-06-05T12:22:34;97800.53;;;28.89;52.65
21869;BME280;11099;41.564;23.296;2023-06-05T12:25:23;97870.53;;;29.57;51.78
21869;BME280;11099;41.564;23.296;2023-06-05T12:27:49;97876.06;;;29.33;51.10
21869;BME280;11099;41.564;23.296;2023-06-05T12:30:15;97875.84;;;29.24;53.55
21869;BME280;11099;41.564;23.296;2023-06-05T12:32:44;97797.78;;;28.69;53.91
21869;BME280;11099;41.564;23.296;2023-06-05T12:35:21;97869.63;;;29.00;55.82
21869;BME280;11099;41.564;23.296;2023-06-05T12:37:47;97813.69;;;28.54;55.42
21869;BME280;11099;41.564;23.296;2023-06-05T12:40:14;97864.53;;;28.55;54.33
21869;BME280;11099;41.564;23.296;2023-06-05T12:42:40;97855.00;;;28.40;56.39
21869;BME280;11099;41.564;23.296;2023-06-05T12:45:08;97848.41;;;28.38;56.56
21869;BME280;11099;41.564;23.296;2023-06-05T12:47:35;97801.56;;;28.05;59.02
21869;BME280;11099;41.564;23.296;2023-06-05T12:50:02;97853.59;;;28.28;58.37
21869;BME280;11099;41.564;23.296;2023-06-05T12:52:28;97744.47;;;27.80;58.29
21869;BME280;11099;41.564;23.296;2023-06-05T12:54:55;97829.06;;;28.48;58.56
21869;BME280;11099;41.564;23.296;2023-06-05T12:57:22;97801.38;;;28.43;56.97
21869;BME280;11099;41.564;23.296;2023-06-05T12:59:47;97814.28;;;28.66;55.13
21869;BME280;11099;41.564;23.296;2023-06-05T13:02:13;97745.78;;;27.72;57.58
21869;BME280;11099;41.564;23.296;2023-06-05T13:04:39;97790.44;;;28.43;59.21
21869;BME280;11099;41.564;23.296;2023-06-05T13:07:07;97770.09;;;28.40;55.97
21869;BME280;11099;41.564;23.296;2023-06-05T13:09:33;97753.38;;;28.11;55.10
21869;BME280;11099;41.564;23.296;2023-06-05T13:12:00;97836.56;;;28.44;55.52
21869;BME280;11099;41.564;23.296;2023-06-05T13:14:26;97747.13;;;27.87;54.11
21869;BME280;11099;41.564;23.296;2023-06-05T13:16:52;97839.75;;;28.12;55.49
21869;BME280;11099;41.564;23.296;2023-06-05T13:19:19;97793.88;;;28.47;55.04
21869;BME280;11099;41.564;23.296;2023-06-05T13:21:46;97823.84;;;28.30;54.96
21869;BME280;11099;41.564;23.296;2023-06-05T13:24:12;97825.00;;;28.56;53.84
21869;BME280;11099;41.564;23.296;2023-06-05T13:26:37;97752.53;;;27.64;53.58
21869;BME280;11099;41.564;23.296;2023-06-05T13:29:03;97763.94;;;27.58;52.65
21869;BME280;11099;41.564;23.296;2023-06-05T13:31:28;97789.56;;;27.72;52.72